Time;durP1;ratioP1;P1;durP2;ratioP2;P2;SDS_P1;SDS_P2;PMS_P1;PMS_P2;Temp;Humidity;BMP_temperature;BMP_pressure;BME280_temperature;BME280_humidity;BME280_pressure;Samples;Min_cycle;Max_cycle;Signal;HPM_P1;HPM_P2
2022/05/26 00:00:35;;;;;;;1237.20;999.90;;;19.00;83.70;;;;;;1996733;28;20205;-72
2022/05/26 00:01:34;;;;;;;1266.55;999.90;;;19.00;83.70;;;;;;1996509;28;20170;-72
2022/05/26 00:02:33;;;;;;;1246.72;999.90;;;19.00;83.70;;;;;;1996747;28;20697;-72
2022/05/26 00:03:32;;;;;;;1257.07;999.90;;;19.00;83.70;;;;;;1996608;28;20200;-72
2022/05/26 00:04:32;;;;;;;1230.10;999.90;;;19.00;83.70;;;;;;1996751;28;20633;-72
2022/05/26 00:05:31;;;;;;;1272.03;999.90;;;18.90;83.60;;;;;;1996582;28;20170;-73
2022/05/26 00:06:31;;;;;;;1280.73;999.90;;;18.90;83.60;;;;;;1996460;28;20174;-72
2022/05/26 00:07:31;;;;;;;1270.55;999.90;;;19.00;83.80;;;;;;1996702;28;20174;-72
2022/05/26 00:08:29;;;;;;;1280.85;999.90;;;19.00;83.70;;;;;;1997822;28;20177;-72
2022/05/26 00:09:28;;;;;;;1285.20;999.90;;;19.00;83.80;;;;;;1997990;28;20182;-72
2022/05/26 00:10:26;;;;;;;1293.37;999.90;;;18.90;83.70;;;;;;1998147;28;20178;-72
2022/05/26 00:11:32;;;;;;;1251.30;999.90;;;18.90;84.20;;;;;;1989770;28;20243;-72
2022/05/26 00:12:32;;;;;;;1252.15;999.90;;;19.00;83.80;;;;;;1990100;28;20178;-72
2022/05/26 00:13:32;;;;;;;1233.65;999.90;;;19.00;83.80;;;;;;1998008;28;20181;-72
2022/05/26 00:14:30;;;;;;;1240.35;999.90;;;18.90;83.70;;;;;;1997941;28;20249;-72
2022/05/26 00:15:30;;;;;;;1233.47;999.90;;;19.00;83.80;;;;;;1997965;28;20236;-72
2022/05/26 00:16:29;;;;;;;1282.70;999.90;;;19.00;83.70;;;;;;1998072;28;20700;-72
2022/05/26 00:17:28;;;;;;;1252.97;999.90;;;18.90;83.70;;;;;;1989703;28;20704;-73
2022/05/26 00:18:27;;;;;;;1283.23;999.90;;;19.00;83.80;;;;;;1989713;28;20261;-72
2022/05/26 00:19:25;;;;;;;1280.50;999.90;;;18.90;83.70;;;;;;1997471;28;20401;-72
2022/05/26 00:20:24;;;;;;;1275.87;999.90;;;18.90;83.70;;;;;;2002228;28;20220;-72
2022/05/26 00:21:24;;;;;;;1260.70;999.90;;;19.00;83.80;;;;;;2001905;28;20551;-72
2022/05/26 00:22:22;;;;;;;1290.18;999.90;;;18.90;83.70;;;;;;2004428;28;20227;-72
2022/05/26 00:23:21;;;;;;;1268.93;999.90;;;19.00;83.80;;;;;;2006084;28;20212;-72
2022/05/26 00:24:20;;;;;;;1297.10;999.90;;;18.90;83.70;;;;;;1991093;28;20185;-72
2022/05/26 00:25:19;;;;;;;1250.10;999.90;;;18.90;83.70;;;;;;1990558;28;20228;-72
2022/05/26 00:26:17;;;;;;;1230.67;999.90;;;18.90;83.70;;;;;;1998262;28;20221;-72
2022/05/26 00:27:16;;;;;;;1286.57;999.90;;;18.90;83.80;;;;;;1998699;28;20478;-72
2022/05/26 00:28:14;;;;;;;1200.67;999.90;;;18.90;83.80;;;;;;1998283;28;20209;-72
2022/05/26 00:29:13;;;;;;;1264.20;999.90;;;18.90;83.70;;;;;;1998622;28;20615;-71
2022/05/26 00:30:12;;;;;;;1252.50;999.90;;;18.90;83.80;;;;;;1998283;28;20599;-71
2022/05/26 00:31:10;;;;;;;1226.73;999.90;;;18.90;83.70;;;;;;1998310;28;20173;-71
2022/05/26 00:32:11;;;;;;;1200.77;999.90;;;18.90;83.70;;;;;;1998135;28;20201;-71
2022/05/26 00:33:09;;;;;;;1235.03;999.90;;;19.00;83.80;;;;;;1997906;28;20253;-72
2022/05/26 00:34:08;;;;;;;1214.60;999.90;;;18.90;83.70;;;;;;1997966;28;20174;-71
2022/05/26 00:35:08;;;;;;;1280.65;999.90;;;19.00;83.80;;;;;;1997983;28;20173;-71
2022/05/26 00:36:09;;;;;;;1253.80;999.90;;;18.90;83.70;;;;;;1989581;28;20187;-71
2022/05/26 00:37:09;;;;;;;1242.13;999.90;;;18.90;83.70;;;;;;1989448;28;20234;-71
2022/05/26 00:38:09;;;;;;;1268.30;999.90;;;19.00;83.90;;;;;;1998107;28;20182;-71
2022/05/26 00:39:22;;;;;;;1260.85;999.90;;;18.90;83.80;;;;;;1997836;28;20178;-71
2022/05/26 00:40:20;;;;;;;1247.65;999.90;;;18.90;83.80;;;;;;1998237;28;20158;-71
2022/05/26 00:41:20;;;;;;;1278.77;999.90;;;18.90;83.70;;;;;;1998205;28;20201;-71
2022/05/26 00:42:18;;;;;;;1306.90;999.90;;;18.90;83.80;;;;;;1998236;28;20197;-71
2022/05/26 00:43:17;;;;;;;1287.37;999.90;;;19.00;83.80;;;;;;1989921;28;20213;-71
2022/05/26 00:44:16;;;;;;;1296.97;999.90;;;19.00;83.80;;;;;;1989890;28;20179;-71
2022/05/26 00:45:15;;;;;;;1284.57;999.90;;;19.00;83.80;;;;;;1997727;28;20212;-71
2022/05/26 00:46:23;;;;;;;1291.93;999.90;;;18.90;83.80;;;;;;1997911;28;20543;-71
2022/05/26 00:47:27;;;;;;;1318.10;999.90;;;18.90;83.80;;;;;;1997414;28;20318;-72
2022/05/26 00:48:32;;;;;;;1285.00;999.90;;;18.90;83.90;;;;;;1997616;28;20158;-71
2022/05/26 00:50:02;;;;;;;1274.95;999.90;;;18.90;83.80;;;;;;1998088;28;20185;-72
2022/05/26 00:51:04;;;;;;;1296.07;999.90;;;19.00;83.90;;;;;;1968120;28;20644;-71
2022/05/26 00:52:05;;;;;;;1302.65;999.90;;;18.90;83.80;;;;;;1989890;28;20572;-71
2022/05/26 00:53:13;;;;;;;1286.22;999.90;;;18.90;83.80;;;;;;1989849;28;20290;-71
2022/05/26 00:54:19;;;;;;;1256.65;999.90;;;18.90;83.80;;;;;;1998905;28;20182;-71
2022/05/26 00:55:26;;;;;;;1266.75;999.90;;;18.90;83.80;;;;;;1999472;28;20197;-71
2022/05/26 00:57:10;;;;;;;1289.68;999.90;;;18.90;83.80;;;;;;1997702;28;20314;-71
2022/05/26 00:58:15;;;;;;;1241.72;999.90;;;19.00;84.00;;;;;;1993770;28;20217;-71
2022/05/26 00:59:26;;;;;;;1290.45;999.90;;;18.90;83.80;;;;;;1997894;28;20170;-71
2022/05/26 01:00:28;;;;;;;1298.20;999.90;;;18.90;83.80;;;;;;1997888;28;20194;-72
2022/05/26 01:01:28;;;;;;;1272.93;999.90;;;18.90;83.80;;;;;;1997591;28;20185;-72
2022/05/26 01:02:34;;;;;;;1272.45;999.90;;;18.90;83.80;;;;;;1997780;28;20177;-71
2022/05/26 01:03:41;;;;;;;1254.85;999.90;;;18.90;83.80;;;;;;1997710;28;20169;-71
2022/05/26 01:04:46;;;;;;;1273.63;999.90;;;18.90;83.80;;;;;;1989494;28;20162;-71
2022/05/26 01:06:10;;;;;;;1291.00;999.90;;;18.90;83.80;;;;;;1990029;28;20171;-72
2022/05/26 01:07:15;;;;;;;1264.70;999.90;;;18.90;83.80;;;;;;1997838;28;20672;-71
2022/05/26 01:08:30;;;;;;;1238.10;999.90;;;18.90;83.90;;;;;;1997541;28;20192;-71
2022/05/26 01:09:30;;;;;;;1244.95;999.90;;;18.90;83.80;;;;;;1997625;28;20158;-71
2022/05/26 01:10:29;;;;;;;1270.75;999.90;;;18.90;83.80;;;;;;1997590;28;20185;-72
2022/05/26 01:11:35;;;;;;;1254.73;999.90;;;19.00;83.90;;;;;;1997831;28;20197;-72
2022/05/26 01:12:33;;;;;;;1288.47;999.90;;;18.90;83.80;;;;;;1997924;28;20600;-71
2022/05/26 01:13:37;;;;;;;1283.07;999.90;;;18.90;83.80;;;;;;1997842;28;20174;-71
2022/05/26 01:14:51;;;;;;;1252.45;999.90;;;18.90;83.80;;;;;;1997845;28;20262;-70
2022/05/26 01:16:08;;;;;;;1253.50;999.90;;;18.90;83.80;;;;;;1997830;28;20605;-72
2022/05/26 01:17:26;;;;;;;1231.60;999.90;;;18.90;83.80;;;;;;1997648;28;20193;-71
2022/05/26 01:18:38;;;;;;;1259.68;999.90;;;19.00;84.00;;;;;;1997741;28;20158;-71
2022/05/26 01:20:09;;;;;;;1242.35;999.90;;;18.90;83.80;;;;;;1996720;28;20573;-71
2022/05/26 01:21:33;;;;;;;1219.78;999.90;;;18.90;83.80;;;;;;1997751;28;20622;-72
2022/05/26 01:22:55;;;;;;;1241.40;999.90;;;18.90;83.90;;;;;;1997735;28;20261;-71
2022/05/26 01:24:03;;;;;;;1284.13;999.90;;;19.00;84.00;;;;;;1997738;28;20169;-71
2022/05/26 01:25:23;;;;;;;1273.00;999.90;;;18.90;83.90;;;;;;1989098;28;20250;-71
2022/05/26 01:26:53;;;;;;;1279.15;999.90;;;18.90;83.90;;;;;;1991491;28;20190;-71
2022/05/26 01:28:30;;;;;;;1290.75;999.90;;;18.90;83.90;;;;;;1996960;28;20181;-71
2022/05/26 01:29:55;;;;;;;1301.03;999.90;;;18.90;83.90;;;;;;1997534;28;20177;-72
2022/05/26 01:31:05;;;;;;;1284.65;999.90;;;18.90;83.90;;;;;;1997698;28;20241;-71
2022/05/26 01:32:24;;;;;;;1305.63;999.90;;;18.90;83.90;;;;;;1989142;28;20639;-71
2022/05/26 01:33:40;;;;;;;1295.10;999.90;;;18.90;84.00;;;;;;1989321;28;20262;-72
2022/05/26 01:34:57;;;;;;;1287.60;999.90;;;18.90;83.90;;;;;;1991169;28;20154;-72
2022/05/26 01:36:25;;;;;;;1304.65;999.90;;;18.90;84.00;;;;;;1997594;28;20158;-72
2022/05/26 01:37:55;;;;;;;1302.65;999.90;;;18.90;84.00;;;;;;1997651;28;20209;-72
2022/05/26 01:39:03;;;;;;;1301.97;999.90;;;19.00;84.00;;;;;;1997434;28;20162;-71
2022/05/26 01:40:13;;;;;;;1284.90;999.90;;;18.90;84.00;;;;;;1997566;28;20162;-72
2022/05/26 01:41:37;;;;;;;1318.50;999.90;;;18.90;84.00;;;;;;1996891;28;20172;-71
2022/05/26 01:43:02;;;;;;;1279.97;999.90;;;18.90;84.00;;;;;;1996990;28;20173;-71
2022/05/26 01:44:11;;;;;;;1266.13;999.90;;;18.90;84.00;;;;;;1997517;28;20177;-71
2022/05/26 01:45:41;;;;;;;1297.72;999.90;;;18.90;84.00;;;;;;1997332;28;20190;-71
2022/05/26 01:46:42;;;;;;;1269.40;999.90;;;18.90;84.00;;;;;;1997452;28;20177;-71
2022/05/26 01:48:10;;;;;;;1281.22;999.90;;;18.90;84.10;;;;;;1988949;28;20266;-71
2022/05/26 01:49:46;;;;;;;1287.38;999.90;;;18.90;84.10;;;;;;1992511;28;20668;-71
2022/05/26 01:51:01;;;;;;;1280.28;999.90;;;18.90;84.10;;;;;;1965921;29;20588;-71
2022/05/26 01:52:27;;;;;;;1272.05;999.90;;;18.90;84.10;;;;;;1995057;28;20192;-71
2022/05/26 01:53:44;;;;;;;1302.75;999.90;;;18.90;84.10;;;;;;1997234;28;20180;-71
2022/05/26 01:54:53;;;;;;;1302.82;999.90;;;18.90;84.10;;;;;;1997597;28;20635;-71
2022/05/26 01:56:03;;;;;;;1279.22;999.90;;;18.90;84.10;;;;;;1997588;28;20186;-71
2022/05/26 01:57:43;;;;;;;1284.53;999.90;;;18.90;84.10;;;;;;1997268;28;20256;-71
2022/05/26 01:59:03;;;;;;;1305.47;999.90;;;18.90;84.10;;;;;;1965701;29;20551;-71
2022/05/26 02:00:09;;;;;;;1296.93;999.90;;;18.90;84.10;;;;;;1997351;28;20185;-72
2022/05/26 02:01:12;;;;;;;1289.85;999.90;;;18.90;84.10;;;;;;1997401;28;20177;-71
2022/05/26 02:02:18;;;;;;;1294.28;999.90;;;18.90;84.20;;;;;;1997188;28;20166;-71
2022/05/26 02:03:22;;;;;;;1289.63;999.90;;;18.90;84.10;;;;;;1989012;28;20668;-72
2022/05/26 02:04:28;;;;;;;1289.97;999.90;;;18.90;84.20;;;;;;1989219;28;20163;-72
2022/05/26 02:05:29;;;;;;;1266.20;999.90;;;18.90;84.20;;;;;;1997363;28;20162;-72
2022/05/26 02:06:35;;;;;;;1305.53;999.90;;;18.90;84.10;;;;;;1997332;28;20217;-71
2022/05/26 02:07:52;;;;;;;1285.65;999.90;;;18.90;84.10;;;;;;1997209;28;20173;-71
2022/05/26 02:08:59;;;;;;;1282.57;999.90;;;18.90;84.20;;;;;;1997329;28;20565;-71
2022/05/26 02:10:02;;;;;;;1300.13;999.90;;;18.90;84.20;;;;;;1997340;28;20162;-71
2022/05/26 02:11:12;;;;;;;1279.75;999.90;;;18.90;84.20;;;;;;1997337;28;20174;-71
2022/05/26 02:12:29;;;;;;;1289.32;999.90;;;18.90;84.20;;;;;;1997171;28;20594;-72
2022/05/26 02:13:37;;;;;;;1303.25;999.90;;;18.90;84.20;;;;;;1997235;28;20166;-71
2022/05/26 02:15:01;;;;;;;1269.28;999.90;;;18.90;84.20;;;;;;1997177;28;20161;-71
2022/05/26 02:16:16;;;;;;;1298.88;999.90;;;18.90;84.20;;;;;;1997220;28;20622;-71
2022/05/26 02:17:20;;;;;;;1279.40;999.90;;;18.90;84.20;;;;;;1997230;28;20766;-71
2022/05/26 02:18:25;;;;;;;1300.43;999.90;;;18.90;84.20;;;;;;1997262;28;20162;-71
2022/05/26 02:19:43;;;;;;;1289.07;999.90;;;18.90;84.20;;;;;;1997247;28;20158;-71
2022/05/26 02:20:48;;;;;;;1293.43;999.90;;;18.90;84.30;;;;;;1997255;28;20694;-71
2022/05/26 02:21:59;;;;;;;1279.75;999.90;;;18.90;84.30;;;;;;1996500;28;20174;-71
2022/05/26 02:23:04;;;;;;;1270.78;999.90;;;18.90;84.30;;;;;;1996849;28;20170;-71
2022/05/26 02:24:09;;;;;;;1300.35;999.90;;;18.90;84.30;;;;;;1997241;28;20584;-70
2022/05/26 02:25:16;;;;;;;1260.55;999.90;;;18.90;84.30;;;;;;1997176;28;20708;-72
2022/05/26 02:26:14;;;;;;;1289.00;999.90;;;18.90;84.30;;;;;;1997262;28;20607;-73
2022/05/26 02:27:16;;;;;;;1299.70;999.90;;;18.90;84.30;;;;;;1997323;28;20193;-71
2022/05/26 02:28:14;;;;;;;1301.45;999.90;;;18.90;84.30;;;;;;1988821;28;20353;-71
2022/05/26 02:30:35;;;;;;;1304.50;999.90;;;18.90;84.30;;;;;;1997502;28;20154;-71
2022/05/26 02:31:38;;;;;;;1280.38;999.90;;;18.90;84.40;;;;;;1988886;28;20213;-72
2022/05/26 02:32:42;;;;;;;1286.32;999.90;;;18.90;84.40;;;;;;1989520;28;20151;-73
2022/05/26 02:33:43;;;;;;;1284.05;999.90;;;18.90;84.40;;;;;;1996786;28;20246;-71
2022/05/26 02:34:44;;;;;;;1274.93;999.90;;;18.90;84.40;;;;;;1997234;28;20178;-71
2022/05/26 02:35:47;;;;;;;1285.25;999.90;;;18.90;84.40;;;;;;1988523;28;20257;-73
2022/05/26 02:36:51;;;;;;;1303.38;999.90;;;18.90;84.40;;;;;;1989057;28;20198;-71
2022/05/26 02:37:56;;;;;;;1289.88;999.90;;;18.90;84.40;;;;;;1997191;28;20162;-71
2022/05/26 02:38:54;;;;;;;1267.07;999.90;;;18.90;84.40;;;;;;1997286;28;20158;-73
2022/05/26 02:39:53;;;;;;;1284.20;999.90;;;18.90;84.40;;;;;;1997093;28;20169;-71
2022/05/26 02:40:54;;;;;;;1262.90;999.90;;;18.90;84.40;;;;;;1997001;28;20253;-71
2022/05/26 02:41:58;;;;;;;1281.80;999.90;;;18.90;84.40;;;;;;1997006;28;20169;-71
2022/05/26 02:43:10;;;;;;;1287.75;999.90;;;18.90;84.40;;;;;;1997218;28;20169;-72
2022/05/26 02:44:09;;;;;;;1277.47;999.90;;;18.90;84.40;;;;;;1997296;28;20170;-71
2022/05/26 02:45:11;;;;;;;1302.07;999.90;;;18.90;84.50;;;;;;1996810;28;20173;-71
2022/05/26 02:46:31;;;;;;;1273.30;999.90;;;18.90;84.40;;;;;;1996756;28;20347;-71
2022/05/26 02:48:00;;;;;;;1257.50;999.90;;;18.90;84.50;;;;;;1997099;28;20176;-71
2022/05/26 02:49:13;;;;;;;1302.32;999.90;;;18.90;84.50;;;;;;1997139;28;20217;-71
2022/05/26 02:50:45;;;;;;;1294.20;999.90;;;18.90;84.50;;;;;;1997037;28;20165;-71
2022/05/26 02:51:55;;;;;;;1289.45;999.90;;;18.90;84.50;;;;;;1997003;28;20169;-71
2022/05/26 02:53:04;;;;;;;1291.28;999.90;;;18.90;84.50;;;;;;1997229;28;20516;-71
2022/05/26 02:54:25;;;;;;;1278.97;999.90;;;18.90;84.50;;;;;;1997024;28;20257;-72
2022/05/26 02:55:34;;;;;;;1281.90;999.90;;;18.90;84.50;;;;;;1997125;28;20200;-73
2022/05/26 02:56:57;;;;;;;1312.28;999.90;;;18.90;84.50;;;;;;1997015;28;20181;-70
2022/05/26 02:58:18;;;;;;;1301.15;999.90;;;18.90;84.50;;;;;;1988632;28;20232;-71
2022/05/26 02:59:30;;;;;;;1280.80;999.90;;;18.90;84.50;;;;;;1991171;28;20198;-71
2022/05/26 03:00:55;;;;;;;1296.55;999.90;;;18.90;84.50;;;;;;1996877;28;20210;-71
2022/05/26 03:01:58;;;;;;;1278.43;999.90;;;18.90;84.60;;;;;;1996103;28;20181;-71
2022/05/26 03:02:56;;;;;;;1275.00;999.90;;;18.90;84.60;;;;;;1996574;28;20245;-71
2022/05/26 03:04:06;;;;;;;1287.27;999.90;;;18.90;84.60;;;;;;1997022;28;20527;-71
2022/05/26 03:05:35;;;;;;;1261.72;999.90;;;18.90;84.60;;;;;;1997015;28;20217;-71
2022/05/26 03:06:42;;;;;;;1078.25;973.65;;;18.90;84.60;;;;;;1986211;28;20468;-71
2022/05/26 03:07:43;;;;;;;1293.35;999.90;;;18.90;84.60;;;;;;1997068;28;20173;-70
2022/05/26 03:08:44;;;;;;;1278.75;999.90;;;18.90;84.60;;;;;;2004241;28;20217;-72
2022/05/26 03:09:45;;;;;;;1273.57;999.90;;;18.90;84.60;;;;;;2004526;28;20181;-72
2022/05/26 03:10:48;;;;;;;1283.03;999.90;;;18.90;84.60;;;;;;2003604;28;20230;-72
2022/05/26 03:11:50;;;;;;;1301.22;999.90;;;18.90;84.60;;;;;;2002055;28;20166;-72
2022/05/26 03:12:49;;;;;;;1266.38;999.90;;;18.90;84.70;;;;;;1997132;28;20174;-72
2022/05/26 03:13:50;;;;;;;1293.07;999.90;;;18.90;84.70;;;;;;1989089;28;20602;-72
2022/05/26 03:14:48;;;;;;;1298.80;999.90;;;18.90;84.70;;;;;;1989139;28;20190;-72
2022/05/26 03:15:47;;;;;;;1294.90;999.90;;;18.90;84.70;;;;;;1997269;28;20190;-72
2022/05/26 03:16:46;;;;;;;1285.13;999.90;;;18.90;84.70;;;;;;1997156;28;20236;-72
2022/05/26 03:17:45;;;;;;;1300.95;999.90;;;18.90;84.70;;;;;;1996973;28;20261;-72
2022/05/26 03:18:43;;;;;;;1283.93;999.90;;;18.90;84.70;;;;;;1996958;28;20239;-72
2022/05/26 03:19:42;;;;;;;1276.60;999.90;;;18.90;84.70;;;;;;1988385;28;20170;-72
2022/05/26 03:20:40;;;;;;;1263.80;999.90;;;18.90;84.70;;;;;;1988642;28;20271;-72
2022/05/26 03:21:41;;;;;;;1271.77;999.90;;;18.90;84.80;;;;;;1996333;28;20480;-72
2022/05/26 03:22:39;;;;;;;1270.55;999.90;;;18.80;84.60;;;;;;1996910;28;20181;-72
2022/05/26 03:23:39;;;;;;;1291.33;999.90;;;18.90;84.80;;;;;;1996793;28;20256;-72
2022/05/26 03:24:37;;;;;;;1288.40;999.90;;;18.90;84.80;;;;;;1996676;28;20213;-72
2022/05/26 03:25:36;;;;;;;1279.37;999.90;;;18.90;84.80;;;;;;1996758;28;20174;-71
2022/05/26 03:26:35;;;;;;;1284.77;999.90;;;18.90;84.80;;;;;;1996663;28;20500;-72
2022/05/26 03:27:34;;;;;;;1265.47;999.90;;;18.90;84.80;;;;;;1996785;28;20209;-71
2022/05/26 03:28:32;;;;;;;1297.17;999.90;;;18.90;84.80;;;;;;1996918;28;20220;-71
2022/05/26 03:29:31;;;;;;;1293.63;999.90;;;18.90;84.80;;;;;;1996954;28;20176;-71
2022/05/26 03:30:30;;;;;;;1271.80;999.90;;;18.90;84.80;;;;;;1996671;28;20393;-71
2022/05/26 03:31:30;;;;;;;1295.50;999.90;;;18.90;84.80;;;;;;1996802;28;20402;-71
2022/05/26 03:32:28;;;;;;;1296.57;999.90;;;18.90;84.80;;;;;;1996818;28;20162;-71
2022/05/26 03:40:45;;;;;;;1291.60;999.90;;;18.90;84.80;;;;;;1996638;28;20268;-71
2022/05/26 03:41:11;;;;;;;1227.45;999.90;;;18.90;84.90;;;;;;1996889;28;20647;-71
2022/05/26 03:42:12;;;;;;;1202.23;999.90;;;18.90;84.90;;;;;;1996793;28;20288;-71
2022/05/26 03:43:12;;;;;;;1214.20;999.90;;;18.90;84.90;;;;;;1997961;28;20182;-71
2022/05/26 03:44:10;;;;;;;1024.35;914.83;;;18.90;84.90;;;;;;1989980;28;20210;-71
2022/05/26 03:45:10;;;;;;;1244.23;999.90;;;18.90;84.90;;;;;;1990092;28;20572;-71
2022/05/26 03:46:09;;;;;;;1244.75;999.90;;;18.90;84.90;;;;;;1998016;28;20201;-72
2022/05/26 03:47:07;;;;;;;1261.70;999.90;;;18.90;84.90;;;;;;1998223;28;20212;-73
2022/05/26 03:48:06;;;;;;;1246.37;999.90;;;18.90;85.00;;;;;;1989918;28;20174;-71
2022/05/26 03:49:05;;;;;;;1247.93;999.90;;;18.90;84.90;;;;;;1989566;28;20205;-71
2022/05/26 03:50:04;;;;;;;1263.97;999.90;;;18.90;84.90;;;;;;1997765;28;20253;-72
2022/05/26 03:51:02;;;;;;;1263.67;999.90;;;18.90;84.90;;;;;;1997678;28;20413;-72
2022/05/26 03:52:01;;;;;;;1252.37;999.90;;;18.90;84.90;;;;;;1997832;28;20405;-71
2022/05/26 03:52:59;;;;;;;1260.53;999.90;;;18.90;84.90;;;;;;1998318;28;20197;-71
2022/05/26 03:53:58;;;;;;;1228.97;999.90;;;18.90;85.00;;;;;;1998302;28;20565;-71
2022/05/26 03:54:56;;;;;;;866.97;743.87;;;18.90;84.90;;;;;;1998275;28;20645;-72
2022/05/26 03:55:55;;;;;;;848.43;738.33;;;18.90;85.00;;;;;;1998438;28;20189;-72
2022/05/26 03:56:53;;;;;;;1021.97;904.30;;;18.90;85.00;;;;;;1998301;28;20676;-71
2022/05/26 03:57:52;;;;;;;928.47;829.97;;;18.90;85.00;;;;;;1998741;28;20177;-71
2022/05/26 03:58:53;;;;;;;877.90;781.78;;;18.90;85.00;;;;;;1998691;28;20265;-71
2022/05/26 03:59:53;;;;;;;869.25;772.45;;;18.90;85.00;;;;;;1998602;28;20201;-71
2022/05/26 04:00:53;;;;;;;1129.72;998.22;;;18.90;85.00;;;;;;1999012;28;20695;-71
2022/05/26 04:01:52;;;;;;;1238.00;999.90;;;18.90;85.00;;;;;;1999227;28;20188;-72
2022/05/26 04:02:51;;;;;;;1216.50;999.90;;;18.90;85.00;;;;;;2000602;28;20720;-70
2022/05/26 04:03:50;;;;;;;855.07;746.53;;;18.90;85.00;;;;;;1999237;28;20193;-70
2022/05/26 04:04:49;;;;;;;1100.37;981.37;;;18.90;85.00;;;;;;1998491;28;20182;-71
2022/05/26 04:05:47;;;;;;;1153.33;999.90;;;18.90;85.00;;;;;;2005942;28;20417;-70
2022/05/26 04:06:46;;;;;;;1263.30;999.90;;;18.90;85.00;;;;;;2005903;28;20243;-71
2022/05/26 04:07:44;;;;;;;1261.47;999.90;;;18.90;85.00;;;;;;1998584;28;20222;-70
2022/05/26 04:08:43;;;;;;;1235.83;999.90;;;18.90;85.00;;;;;;1998200;28;20170;-73
2022/05/26 04:09:42;;;;;;;999.23;887.67;;;18.90;85.00;;;;;;1998522;28;20201;-73
2022/05/26 04:10:41;;;;;;;1194.43;999.90;;;18.90;85.00;;;;;;1998122;28;20189;-72
2022/05/26 04:11:39;;;;;;;961.23;844.60;;;18.90;85.00;;;;;;1998247;28;20181;-72
2022/05/26 04:12:38;;;;;;;1262.27;999.90;;;18.90;85.00;;;;;;1998213;28;20161;-72
2022/05/26 04:13:37;;;;;;;1000.30;893.55;;;18.90;85.00;;;;;;1998284;28;20546;-70
2022/05/26 04:14:36;;;;;;;1009.63;902.70;;;18.90;85.00;;;;;;1998022;28;20194;-71
2022/05/26 04:15:35;;;;;;;1251.30;999.90;;;18.90;85.00;;;;;;1989927;28;20650;-71
2022/05/26 04:16:33;;;;;;;943.87;842.87;;;18.90;85.10;;;;;;1989855;28;20194;-71
2022/05/26 04:17:33;;;;;;;1264.55;999.90;;;18.90;85.10;;;;;;1996919;28;20232;-72
2022/05/26 04:18:33;;;;;;;1297.50;999.90;;;18.90;85.10;;;;;;1997476;28;20188;-72
2022/05/26 04:19:31;;;;;;;1112.50;998.78;;;18.90;85.10;;;;;;1998283;28;20265;-71
2022/05/26 04:20:31;;;;;;;1116.27;996.97;;;18.90;85.10;;;;;;1998338;28;20601;-72
2022/05/26 04:21:30;;;;;;;1104.43;978.97;;;18.90;85.10;;;;;;1998326;28;20427;-71
2022/05/26 04:22:28;;;;;;;1237.70;999.90;;;18.90;85.10;;;;;;1990159;28;20528;-71
2022/05/26 04:23:27;;;;;;;1251.57;999.90;;;18.90;85.00;;;;;;1990030;28;20179;-71
2022/05/26 04:24:25;;;;;;;1188.90;999.90;;;18.90;85.00;;;;;;1997469;28;20219;-71
2022/05/26 04:25:25;;;;;;;1206.33;999.90;;;18.90;85.00;;;;;;1998463;28;20162;-71
2022/05/26 04:26:23;;;;;;;1249.53;999.90;;;18.90;85.00;;;;;;1998054;28;20672;-71
2022/05/26 04:27:26;;;;;;;1267.60;999.90;;;19.00;85.20;;;;;;1998179;28;20201;-71
2022/05/26 04:28:24;;;;;;;1234.38;999.90;;;18.90;85.00;;;;;;1998260;28;20241;-71
2022/05/26 04:29:23;;;;;;;1287.90;999.90;;;18.90;85.00;;;;;;1997830;28;20178;-72
2022/05/26 04:30:23;;;;;;;1281.22;999.90;;;19.00;85.10;;;;;;1997903;28;20174;-71
2022/05/26 04:31:26;;;;;;;1264.78;999.90;;;18.90;85.00;;;;;;1998072;28;20255;-72
2022/05/26 04:32:28;;;;;;;1269.03;999.90;;;18.90;85.10;;;;;;1997856;28;20181;-71
2022/05/26 04:33:27;;;;;;;1274.05;999.90;;;19.00;85.20;;;;;;1997975;28;20178;-71
2022/05/26 04:34:26;;;;;;;1264.37;999.90;;;19.00;85.10;;;;;;1989663;28;20209;-71
2022/05/26 04:35:24;;;;;;;1281.67;999.90;;;18.90;85.10;;;;;;1989546;28;20412;-72
2022/05/26 04:36:23;;;;;;;1275.77;999.90;;;19.00;85.20;;;;;;1997422;28;20638;-72
2022/05/26 04:37:25;;;;;;;1294.77;999.90;;;18.90;85.10;;;;;;1989464;28;20425;-71
2022/05/26 04:38:24;;;;;;;1250.68;999.90;;;18.90;85.10;;;;;;1989720;28;20191;-71
2022/05/26 04:39:24;;;;;;;1238.27;999.90;;;19.00;85.20;;;;;;1997384;28;20656;-72
2022/05/26 04:40:22;;;;;;;1259.63;999.90;;;19.00;85.20;;;;;;1997803;28;20443;-72
2022/05/26 04:41:23;;;;;;;1256.10;999.90;;;18.90;85.20;;;;;;1997859;28;20182;-72
2022/05/26 04:42:23;;;;;;;1248.97;999.90;;;19.00;85.20;;;;;;1997867;28;20178;-72
2022/05/26 04:43:22;;;;;;;1251.00;999.90;;;19.00;85.90;;;;;;1997763;28;20645;-71
2022/05/26 04:44:20;;;;;;;1240.80;999.90;;;19.00;85.20;;;;;;1997712;28;20177;-71
2022/05/26 04:45:19;;;;;;;1233.50;999.90;;;19.00;85.20;;;;;;1997818;28;20182;-72
2022/05/26 04:46:18;;;;;;;1258.00;999.90;;;19.00;85.20;;;;;;1997803;28;20256;-72
2022/05/26 04:47:18;;;;;;;1258.47;999.90;;;18.90;85.20;;;;;;1997749;28;20186;-72
2022/05/26 04:48:17;;;;;;;1252.95;999.90;;;19.00;85.20;;;;;;1997751;28;20174;-72
2022/05/26 04:49:16;;;;;;;1249.25;999.90;;;18.90;85.20;;;;;;1997858;28;20166;-72
2022/05/26 04:50:14;;;;;;;1249.30;999.90;;;19.00;85.30;;;;;;1997748;28;20181;-72
2022/05/26 04:51:13;;;;;;;1242.77;999.90;;;19.00;85.30;;;;;;1989356;28;20412;-72
2022/05/26 04:52:15;;;;;;;1237.03;999.90;;;19.00;85.30;;;;;;1989636;28;20170;-72
2022/05/26 04:53:14;;;;;;;1247.97;999.90;;;18.90;85.20;;;;;;1997133;28;20817;-71
2022/05/26 04:54:12;;;;;;;1222.53;999.90;;;19.00;85.30;;;;;;1995694;28;20336;-71
2022/05/26 04:55:11;;;;;;;1258.53;999.90;;;19.00;85.30;;;;;;1996907;28;20200;-71
2022/05/26 04:56:10;;;;;;;1251.03;999.90;;;19.00;85.30;;;;;;1997937;28;20184;-71
2022/05/26 04:57:09;;;;;;;1197.97;999.90;;;18.90;85.80;;;;;;1997722;28;20464;-71
2022/05/26 04:58:07;;;;;;;1165.82;999.90;;;19.00;85.30;;;;;;1989464;28;20434;-72
2022/05/26 04:59:06;;;;;;;1148.60;999.90;;;19.00;85.30;;;;;;1989611;28;20186;-72
2022/05/26 05:00:10;;;;;;;817.17;666.23;;;19.00;85.30;;;;;;1997359;28;20174;-72
2022/05/26 05:01:18;;;;;;;1256.05;999.90;;;19.00;85.30;;;;;;1997219;28;20868;-72
2022/05/26 05:02:21;;;;;;;922.72;792.22;;;18.90;85.20;;;;;;1997445;28;20225;-72
2022/05/26 05:03:20;;;;;;;1180.28;999.90;;;19.00;85.20;;;;;;1997806;28;20617;-72
2022/05/26 05:04:21;;;;;;;960.10;854.10;;;19.00;85.30;;;;;;1997984;28;20182;-72
2022/05/26 05:05:20;;;;;;;858.70;764.65;;;18.90;85.20;;;;;;1989317;28;20174;-72
2022/05/26 05:06:19;;;;;;;1226.20;999.90;;;18.90;85.20;;;;;;1981604;29;20207;-72
2022/05/26 05:07:18;;;;;;;943.10;841.40;;;19.10;85.30;;;;;;1988947;28;20759;-72
2022/05/26 05:08:16;;;;;;;773.90;563.78;;;19.00;85.20;;;;;;1997407;28;20456;-72
2022/05/26 05:09:15;;;;;;;836.20;722.53;;;19.00;85.20;;;;;;1997782;28;20269;-71
2022/05/26 05:10:14;;;;;;;947.10;839.40;;;19.00;85.20;;;;;;1997761;28;20460;-71
2022/05/26 05:11:14;;;;;;;954.43;848.80;;;19.00;85.20;;;;;;1997977;28;20672;-71
2022/05/26 05:12:15;;;;;;;895.42;797.35;;;19.00;85.20;;;;;;1997841;28;20174;-71
2022/05/26 05:13:14;;;;;;;907.78;808.60;;;19.00;85.20;;;;;;1997728;28;20302;-72
2022/05/26 05:14:12;;;;;;;841.93;726.53;;;19.00;85.20;;;;;;1997650;28;20662;-72
2022/05/26 05:15:18;;;;;;;841.93;730.80;;;19.00;85.10;;;;;;1997474;28;20197;-71
2022/05/26 05:16:29;;;;;;;818.90;693.28;;;19.00;85.20;;;;;;1997739;28;20173;-72
2022/05/26 05:17:29;;;;;;;831.92;720.60;;;19.00;85.10;;;;;;1997600;28;20248;-71
2022/05/26 05:18:28;;;;;;;836.72;706.97;;;19.00;85.10;;;;;;1997565;28;20548;-71
2022/05/26 05:19:27;;;;;;;821.37;702.87;;;19.00;85.20;;;;;;1989231;28;20190;-72
2022/05/26 05:20:26;;;;;;;820.58;673.67;;;19.00;85.20;;;;;;1989265;28;20175;-72
2022/05/26 05:21:34;;;;;;;1227.30;999.90;;;19.00;85.20;;;;;;1997406;28;20177;-72
2022/05/26 05:22:49;;;;;;;1218.00;999.90;;;19.00;85.20;;;;;;1997613;28;20154;-71
2022/05/26 05:23:52;;;;;;;1036.53;920.92;;;19.00;85.20;;;;;;1997696;28;20169;-71